sensor_id;sensor_type;location;lat;lon;timestamp;P1;durP1;ratioP1;P2;durP2;ratioP2
6436;SDS011;3251;53.550;9.918;2023-05-07T10:21:43;11.90;;;6.97;;
6436;SDS011;3251;53.550;9.918;2023-05-07T10:24:12;7.53;;;6.83;;
6436;SDS011;3251;53.550;9.918;2023-05-07T10:26:43;14.93;;;8.40;;
6436;SDS011;3251;53.550;9.918;2023-05-07T10:29:24;15.53;;;9.93;;
6436;SDS011;3251;53.550;9.918;2023-05-07T10:31:53;8.07;;;7.27;;
6436;SDS011;3251;53.550;9.918;2023-05-07T10:34:21;9.77;;;7.30;;
6436;SDS011;3251;53.550;9.918;2023-05-07T10:36:49;11.40;;;9.67;;
6436;SDS011;3251;53.550;9.918;2023-05-07T10:39:15;7.33;;;6.63;;
6436;SDS011;3251;53.550;9.918;2023-05-07T10:41:42;12.17;;;7.67;;
6436;SDS011;3251;53.550;9.918;2023-05-07T10:44:09;9.67;;;8.43;;
6436;SDS011;3251;53.550;9.918;2023-05-07T10:46:36;10.00;;;7.43;;
6436;SDS011;3251;53.550;9.918;2023-05-07T10:49:11;7.87;;;7.10;;
6436;SDS011;3251;53.550;9.918;2023-05-07T10:54:37;6.13;;;5.53;;
6436;SDS011;3251;53.550;9.918;2023-05-07T10:59:53;8.93;;;7.00;;
6436;SDS011;3251;53.550;9.918;2023-05-07T11:03:04;28.57;;;6.30;;
6436;SDS011;3251;53.550;9.918;2023-05-07T11:05:19;6.70;;;5.90;;
6436;SDS011;3251;53.550;9.918;2023-05-07T11:08:06;5.63;;;5.23;;
6436;SDS011;3251;53.550;9.918;2023-05-07T11:10:51;6.50;;;5.73;;
6436;SDS011;3251;53.550;9.918;2023-05-07T11:13:44;7.33;;;6.57;;
6436;SDS011;3251;53.550;9.918;2023-05-07T11:16:26;6.67;;;6.00;;
6436;SDS011;3251;53.550;9.918;2023-05-07T11:19:07;7.07;;;6.50;;
6436;SDS011;3251;53.550;9.918;2023-05-07T11:21:40;14.40;;;8.83;;
6436;SDS011;3251;53.550;9.918;2023-05-07T11:24:42;7.43;;;6.73;;
6436;SDS011;3251;53.550;9.918;2023-05-07T11:27:09;6.43;;;5.37;;
6436;SDS011;3251;53.550;9.918;2023-05-07T11:29:36;10.93;;;6.07;;
6436;SDS011;3251;53.550;9.918;2023-05-07T11:32:06;7.13;;;6.50;;
6436;SDS011;3251;53.550;9.918;2023-05-07T11:34:51;9.10;;;6.97;;
6436;SDS011;3251;53.550;9.918;2023-05-07T11:37:20;5.73;;;5.17;;
6436;SDS011;3251;53.550;9.918;2023-05-07T11:40:01;6.90;;;6.10;;
6436;SDS011;3251;53.550;9.918;2023-05-07T11:42:36;8.53;;;6.10;;
6436;SDS011;3251;53.550;9.918;2023-05-07T11:45:02;9.20;;;6.63;;
6436;SDS011;3251;53.550;9.918;2023-05-07T11:47:30;6.30;;;5.70;;
6436;SDS011;3251;53.550;9.918;2023-05-07T11:49:56;7.50;;;6.70;;
6436;SDS011;3251;53.550;9.918;2023-05-07T11:52:24;5.40;;;4.90;;
6436;SDS011;3251;53.550;9.918;2023-05-07T11:54:50;6.87;;;5.90;;
6436;SDS011;3251;53.550;9.918;2023-05-07T11:57:16;5.90;;;5.40;;
6436;SDS011;3251;53.550;9.918;2023-05-07T11:59:42;5.70;;;5.20;;
6436;SDS011;3251;53.550;9.918;2023-05-07T12:02:15;8.70;;;5.60;;
6436;SDS011;3251;53.550;9.918;2023-05-07T12:04:41;7.50;;;5.50;;
6436;SDS011;3251;53.550;9.918;2023-05-07T12:07:16;9.17;;;6.27;;
6436;SDS011;3251;53.550;9.918;2023-05-07T12:09:43;5.30;;;4.80;;
6436;SDS011;3251;53.550;9.918;2023-05-07T12:12:10;9.87;;;6.37;;
6436;SDS011;3251;53.550;9.918;2023-05-07T12:14:40;9.27;;;6.07;;
6436;SDS011;3251;53.550;9.918;2023-05-07T12:17:10;8.47;;;5.17;;
6436;SDS011;3251;53.550;9.918;2023-05-07T12:19:39;12.20;;;5.47;;
6436;SDS011;3251;53.550;9.918;2023-05-07T12:22:05;5.87;;;5.47;;
6436;SDS011;3251;53.550;9.918;2023-05-07T12:24:49;8.33;;;4.93;;
6436;SDS011;3251;53.550;9.918;2023-05-07T12:27:15;4.70;;;4.10;;
6436;SDS011;3251;53.550;9.918;2023-05-07T12:29:48;15.77;;;9.90;;
6436;SDS011;3251;53.550;9.918;2023-05-07T12:32:18;31.80;;;16.07;;
6436;SDS011;3251;53.550;9.918;2023-05-07T12:34:44;4.93;;;3.53;;
6436;SDS011;3251;53.550;9.918;2023-05-07T12:37:10;3.80;;;3.60;;
6436;SDS011;3251;53.550;9.918;2023-05-07T12:39:37;4.30;;;4.00;;
6436;SDS011;3251;53.550;9.918;2023-05-07T12:42:04;4.73;;;4.27;;
6436;SDS011;3251;53.550;9.918;2023-05-07T12:44:33;4.57;;;4.17;;
6436;SDS011;3251;53.550;9.918;2023-05-07T12:47:03;4.47;;;4.03;;
6436;SDS011;3251;53.550;9.918;2023-05-07T12:49:29;4.30;;;3.93;;
6436;SDS011;3251;53.550;9.918;2023-05-07T12:51:55;7.50;;;6.13;;
6436;SDS011;3251;53.550;9.918;2023-05-07T12:54:55;4.90;;;4.13;;
6436;SDS011;3251;53.550;9.918;2023-05-07T12:57:14;5.07;;;4.67;;
6436;SDS011;3251;53.550;9.918;2023-05-07T12:59:45;4.80;;;3.40;;
6436;SDS011;3251;53.550;9.918;2023-05-07T13:02:11;7.03;;;3.90;;
6436;SDS011;3251;53.550;9.918;2023-05-07T13:04:39;3.60;;;3.30;;
6436;SDS011;3251;53.550;9.918;2023-05-07T13:07:05;4.10;;;3.80;;
6436;SDS011;3251;53.550;9.918;2023-05-07T13:09:31;4.10;;;3.70;;
6436;SDS011;3251;53.550;9.918;2023-05-07T13:11:58;5.70;;;3.60;;
6436;SDS011;3251;53.550;9.918;2023-05-07T13:14:27;3.30;;;3.10;;
6436;SDS011;3251;53.550;9.918;2023-05-07T13:16:53;3.23;;;3.00;;
6436;SDS011;3251;53.550;9.918;2023-05-07T13:19:19;3.93;;;3.53;;
6436;SDS011;3251;53.550;9.918;2023-05-07T13:21:45;3.90;;;3.40;;
6436;SDS011;3251;53.550;9.918;2023-05-07T13:24:11;4.43;;;3.90;;
6436;SDS011;3251;53.550;9.918;2023-05-07T13:26:38;4.07;;;3.17;;
6436;SDS011;3251;53.550;9.918;2023-05-07T13:29:04;7.93;;;3.57;;
6436;SDS011;3251;53.550;9.918;2023-05-07T13:31:30;5.10;;;3.20;;
6436;SDS011;3251;53.550;9.918;2023-05-07T13:33:57;3.50;;;3.20;;
6436;SDS011;3251;53.550;9.918;2023-05-07T13:36:23;7.23;;;3.83;;
6436;SDS011;3251;53.550;9.918;2023-05-07T13:38:50;3.27;;;2.97;;
6436;SDS011;3251;53.550;9.918;2023-05-07T13:41:16;3.30;;;3.10;;
6436;SDS011;3251;53.550;9.918;2023-05-07T13:43:42;3.47;;;3.17;;
6436;SDS011;3251;53.550;9.918;2023-05-07T13:46:09;4.53;;;4.10;;
6436;SDS011;3251;53.550;9.918;2023-05-07T13:48:35;22.53;;;2.80;;
6436;SDS011;3251;53.550;9.918;2023-05-07T13:51:01;3.27;;;3.07;;
6436;SDS011;3251;53.550;9.918;2023-05-07T13:53:27;4.57;;;3.43;;
6436;SDS011;3251;53.550;9.918;2023-05-07T13:55:53;3.63;;;3.40;;
6436;SDS011;3251;53.550;9.918;2023-05-07T13:58:19;4.27;;;3.30;;
6436;SDS011;3251;53.550;9.918;2023-05-07T14:00:45;3.13;;;2.83;;
6436;SDS011;3251;53.550;9.918;2023-05-07T14:03:15;5.77;;;3.23;;
6436;SDS011;3251;53.550;9.918;2023-05-07T14:05:42;6.67;;;5.03;;
6436;SDS011;3251;53.550;9.918;2023-05-07T14:08:08;3.50;;;3.30;;
6436;SDS011;3251;53.550;9.918;2023-05-07T14:10:35;4.00;;;3.70;;
6436;SDS011;3251;53.550;9.918;2023-05-07T14:13:01;3.17;;;3.00;;
6436;SDS011;3251;53.550;9.918;2023-05-07T14:15:28;3.67;;;3.27;;
6436;SDS011;3251;53.550;9.918;2023-05-07T14:17:54;3.40;;;3.20;;
6436;SDS011;3251;53.550;9.918;2023-05-07T14:20:20;3.17;;;3.03;;
6436;SDS011;3251;53.550;9.918;2023-05-07T14:22:46;3.03;;;2.83;;
6436;SDS011;3251;53.550;9.918;2023-05-07T14:25:12;3.13;;;2.83;;
6436;SDS011;3251;53.550;9.918;2023-05-07T14:27:39;6.20;;;2.83;;
6436;SDS011;3251;53.550;9.918;2023-05-07T14:30:05;4.00;;;2.87;;
6436;SDS011;3251;53.550;9.918;2023-05-07T14:32:32;3.03;;;2.80;;
6436;SDS011;3251;53.550;9.918;2023-05-07T14:34:58;4.50;;;2.90;;
6436;SDS011;3251;53.550;9.918;2023-05-07T14:37:24;2.60;;;2.50;;
6436;SDS011;3251;53.550;9.918;2023-05-07T14:39:50;2.80;;;2.60;;
6436;SDS011;3251;53.550;9.918;2023-05-07T14:42:17;3.40;;;3.10;;
6436;SDS011;3251;53.550;9.918;2023-05-07T14:44:44;5.47;;;3.10;;
6436;SDS011;3251;53.550;9.918;2023-05-07T14:47:11;2.67;;;2.37;;
6436;SDS011;3251;53.550;9.918;2023-05-07T14:49:37;3.20;;;2.90;;
6436;SDS011;3251;53.550;9.918;2023-05-07T14:52:03;2.70;;;2.50;;
6436;SDS011;3251;53.550;9.918;2023-05-07T14:54:33;2.87;;;2.20;;
6436;SDS011;3251;53.550;9.918;2023-05-07T14:57:00;2.90;;;2.70;;
6436;SDS011;3251;53.550;9.918;2023-05-07T14:59:26;9.70;;;2.30;;
6436;SDS011;3251;53.550;9.918;2023-05-07T15:01:53;6.30;;;2.73;;
6436;SDS011;3251;53.550;9.918;2023-05-07T15:04:19;5.53;;;2.50;;
6436;SDS011;3251;53.550;9.918;2023-05-07T15:06:45;3.07;;;2.70;;
6436;SDS011;3251;53.550;9.918;2023-05-07T15:09:12;2.77;;;2.57;;
6436;SDS011;3251;53.550;9.918;2023-05-07T15:11:38;3.07;;;2.30;;
6436;SDS011;3251;53.550;9.918;2023-05-07T15:14:05;4.53;;;3.47;;
6436;SDS011;3251;53.550;9.918;2023-05-07T15:16:31;4.23;;;2.73;;
6436;SDS011;3251;53.550;9.918;2023-05-07T15:18:58;2.43;;;2.17;;
6436;SDS011;3251;53.550;9.918;2023-05-07T15:21:24;9.30;;;2.93;;
6436;SDS011;3251;53.550;9.918;2023-05-07T15:23:51;2.43;;;2.27;;
6436;SDS011;3251;53.550;9.918;2023-05-07T15:26:17;5.10;;;2.33;;
6436;SDS011;3251;53.550;9.918;2023-05-07T15:28:44;4.10;;;2.43;;
6436;SDS011;3251;53.550;9.918;2023-05-07T15:31:10;2.20;;;2.10;;
6436;SDS011;3251;53.550;9.918;2023-05-07T15:33:37;2.40;;;2.00;;
6436;SDS011;3251;53.550;9.918;2023-05-07T15:36:04;4.10;;;3.60;;
6436;SDS011;3251;53.550;9.918;2023-05-07T15:38:31;2.67;;;2.47;;
6436;SDS011;3251;53.550;9.918;2023-05-07T15:40:57;3.23;;;2.80;;
6436;SDS011;3251;53.550;9.918;2023-05-07T15:43:23;3.43;;;2.47;;
6436;SDS011;3251;53.550;9.918;2023-05-07T15:45:50;3.97;;;2.33;;
6436;SDS011;3251;53.550;9.918;2023-05-07T15:48:17;2.77;;;2.50;;
6436;SDS011;3251;53.550;9.918;2023-05-07T15:50:43;4.10;;;3.63;;
6436;SDS011;3251;53.550;9.918;2023-05-07T15:53:09;3.70;;;3.40;;
6436;SDS011;3251;53.550;9.918;2023-05-07T15:55:37;2.50;;;2.30;;
6436;SDS011;3251;53.550;9.918;2023-05-07T15:58:04;9.03;;;3.10;;
6436;SDS011;3251;53.550;9.918;2023-05-07T16:00:31;2.67;;;2.47;;
6436;SDS011;3251;53.550;9.918;2023-05-07T16:02:59;3.10;;;2.43;;
6436;SDS011;3251;53.550;9.918;2023-05-07T16:05:25;2.27;;;2.13;;
6436;SDS011;3251;53.550;9.918;2023-05-07T16:07:51;2.50;;;2.30;;
6436;SDS011;3251;53.550;9.918;2023-05-07T16:10:18;2.73;;;2.53;;
6436;SDS011;3251;53.550;9.918;2023-05-07T16:12:44;2.83;;;2.50;;
6436;SDS011;3251;53.550;9.918;2023-05-07T16:15:10;3.20;;;2.70;;
6436;SDS011;3251;53.550;9.918;2023-05-07T16:17:36;3.30;;;2.70;;
6436;SDS011;3251;53.550;9.918;2023-05-07T16:20:03;1.90;;;1.80;;
6436;SDS011;3251;53.550;9.918;2023-05-07T16:22:30;7.03;;;2.60;;
6436;SDS011;3251;53.550;9.918;2023-05-07T16:24:57;2.37;;;2.27;;
6436;SDS011;3251;53.550;9.918;2023-05-07T16:27:23;2.00;;;1.90;;
6436;SDS011;3251;53.550;9.918;2023-05-07T16:29:49;3.60;;;2.90;;
6436;SDS011;3251;53.550;9.918;2023-05-07T16:32:15;2.50;;;2.20;;
6436;SDS011;3251;53.550;9.918;2023-05-07T16:34:44;9.40;;;5.93;;
6436;SDS011;3251;53.550;9.918;2023-05-07T16:37:11;5.87;;;5.27;;
6436;SDS011;3251;53.550;9.918;2023-05-07T16:39:37;2.90;;;2.70;;
6436;SDS011;3251;53.550;9.918;2023-05-07T16:42:03;3.20;;;3.00;;
6436;SDS011;3251;53.550;9.918;2023-05-07T16:44:32;2.60;;;2.43;;
6436;SDS011;3251;53.550;9.918;2023-05-07T16:46:58;2.90;;;2.70;;
6436;SDS011;3251;53.550;9.918;2023-05-07T16:49:24;3.80;;;3.23;;
6436;SDS011;3251;53.550;9.918;2023-05-07T16:51:50;3.10;;;2.23;;
6436;SDS011;3251;53.550;9.918;2023-05-07T16:54:17;7.20;;;2.30;;
6436;SDS011;3251;53.550;9.918;2023-05-07T16:56:43;3.10;;;2.40;;
6436;SDS011;3251;53.550;9.918;2023-05-07T16:59:10;2.50;;;2.40;;
6436;SDS011;3251;53.550;9.918;2023-05-07T17:01:36;2.93;;;2.73;;
6436;SDS011;3251;53.550;9.918;2023-05-07T17:04:02;3.63;;;3.33;;
6436;SDS011;3251;53.550;9.918;2023-05-07T17:06:28;6.10;;;2.23;;
6436;SDS011;3251;53.550;9.918;2023-05-07T17:08:55;6.53;;;2.27;;
6436;SDS011;3251;53.550;9.918;2023-05-07T17:11:21;3.27;;;2.40;;
6436;SDS011;3251;53.550;9.918;2023-05-07T17:13:47;5.00;;;2.13;;
6436;SDS011;3251;53.550;9.918;2023-05-07T17:16:14;2.53;;;2.33;;
6436;SDS011;3251;53.550;9.918;2023-05-07T17:18:40;4.10;;;2.70;;
6436;SDS011;3251;53.550;9.918;2023-05-07T17:21:06;3.77;;;1.90;;
6436;SDS011;3251;53.550;9.918;2023-05-07T17:23:32;2.40;;;2.30;;
6436;SDS011;3251;53.550;9.918;2023-05-07T17:25:58;2.10;;;1.87;;
6436;SDS011;3251;53.550;9.918;2023-05-07T17:28:25;2.90;;;2.30;;
6436;SDS011;3251;53.550;9.918;2023-05-07T17:30:51;3.47;;;2.10;;
6436;SDS011;3251;53.550;9.918;2023-05-07T17:33:17;8.90;;;3.53;;
6436;SDS011;3251;53.550;9.918;2023-05-07T17:35:43;5.23;;;2.80;;
6436;SDS011;3251;53.550;9.918;2023-05-07T17:38:09;2.60;;;2.40;;
6436;SDS011;3251;53.550;9.918;2023-05-07T17:40:35;2.50;;;2.30;;
6436;SDS011;3251;53.550;9.918;2023-05-07T17:43:01;4.10;;;3.60;;
6436;SDS011;3251;53.550;9.918;2023-05-07T17:45:27;1.97;;;1.77;;
6436;SDS011;3251;53.550;9.918;2023-05-07T17:47:54;3.00;;;2.60;;
6436;SDS011;3251;53.550;9.918;2023-05-07T17:50:20;3.70;;;3.40;;
6436;SDS011;3251;53.550;9.918;2023-05-07T17:52:46;2.30;;;2.10;;
6436;SDS011;3251;53.550;9.918;2023-05-07T17:55:12;2.67;;;1.90;;
6436;SDS011;3251;53.550;9.918;2023-05-07T17:57:39;2.77;;;2.50;;
6436;SDS011;3251;53.550;9.918;2023-05-07T18:00:05;19.77;;;8.70;;
6436;SDS011;3251;53.550;9.918;2023-05-07T18:02:31;6.80;;;4.47;;
6436;SDS011;3251;53.550;9.918;2023-05-07T18:04:58;3.17;;;2.90;;
6436;SDS011;3251;53.550;9.918;2023-05-07T18:07:24;5.53;;;3.43;;
6436;SDS011;3251;53.550;9.918;2023-05-07T18:09:50;5.37;;;3.10;;
6436;SDS011;3251;53.550;9.918;2023-05-07T18:12:16;3.07;;;2.87;;
6436;SDS011;3251;53.550;9.918;2023-05-07T18:14:42;2.57;;;2.40;;
6436;SDS011;3251;53.550;9.918;2023-05-07T18:17:08;13.50;;;2.67;;
6436;SDS011;3251;53.550;9.918;2023-05-07T18:19:34;4.23;;;2.83;;
6436;SDS011;3251;53.550;9.918;2023-05-07T18:22:01;4.20;;;2.40;;
6436;SDS011;3251;53.550;9.918;2023-05-07T18:24:27;3.10;;;2.33;;
6436;SDS011;3251;53.550;9.918;2023-05-07T18:26:53;3.00;;;2.13;;
6436;SDS011;3251;53.550;9.918;2023-05-07T18:29:20;5.73;;;3.37;;
6436;SDS011;3251;53.550;9.918;2023-05-07T18:31:46;4.00;;;2.70;;
6436;SDS011;3251;53.550;9.918;2023-05-07T18:34:12;2.13;;;1.80;;
6436;SDS011;3251;53.550;9.918;2023-05-07T18:36:38;2.67;;;2.47;;
6436;SDS011;3251;53.550;9.918;2023-05-07T18:39:04;3.40;;;3.13;;
6436;SDS011;3251;53.550;9.918;2023-05-07T18:41:31;3.00;;;2.37;;
6436;SDS011;3251;53.550;9.918;2023-05-07T18:43:57;2.30;;;2.20;;
6436;SDS011;3251;53.550;9.918;2023-05-07T18:46:23;4.03;;;2.60;;
6436;SDS011;3251;53.550;9.918;2023-05-07T18:48:49;3.13;;;2.67;;
6436;SDS011;3251;53.550;9.918;2023-05-07T18:51:15;2.80;;;2.50;;
6436;SDS011;3251;53.550;9.918;2023-05-07T18:53:41;4.53;;;3.37;;
6436;SDS011;3251;53.550;9.918;2023-05-07T18:56:07;4.03;;;3.73;;
6436;SDS011;3251;53.550;9.918;2023-05-07T18:58:34;3.23;;;2.77;;
6436;SDS011;3251;53.550;9.918;2023-05-07T19:01:00;7.00;;;2.07;;
6436;SDS011;3251;53.550;9.918;2023-05-07T19:03:28;3.00;;;2.30;;
6436;SDS011;3251;53.550;9.918;2023-05-07T19:05:55;9.27;;;4.17;;
6436;SDS011;3251;53.550;9.918;2023-05-07T19:08:21;18.90;;;9.93;;
6436;SDS011;3251;53.550;9.918;2023-05-07T19:10:47;7.47;;;3.43;;
6436;SDS011;3251;53.550;9.918;2023-05-07T19:13:13;56.80;;;24.63;;
6436;SDS011;3251;53.550;9.918;2023-05-07T19:15:40;27.17;;;14.90;;
6436;SDS011;3251;53.550;9.918;2023-05-07T19:18:06;24.77;;;11.83;;
6436;SDS011;3251;53.550;9.918;2023-05-07T19:20:32;17.80;;;8.80;;
6436;SDS011;3251;53.550;9.918;2023-05-07T19:22:58;15.10;;;6.63;;
6436;SDS011;3251;53.550;9.918;2023-05-07T19:25:24;6.13;;;3.27;;
6436;SDS011;3251;53.550;9.918;2023-05-07T19:27:51;3.20;;;2.50;;
6436;SDS011;3251;53.550;9.918;2023-05-07T19:30:17;6.23;;;4.10;;
6436;SDS011;3251;53.550;9.918;2023-05-07T19:32:43;6.93;;;5.00;;
6436;SDS011;3251;53.550;9.918;2023-05-07T19:35:09;3.93;;;3.63;;
6436;SDS011;3251;53.550;9.918;2023-05-07T19:37:35;3.50;;;2.90;;
6436;SDS011;3251;53.550;9.918;2023-05-07T19:40:01;10.93;;;3.43;;
6436;SDS011;3251;53.550;9.918;2023-05-07T19:42:30;7.40;;;3.57;;
6436;SDS011;3251;53.550;9.918;2023-05-07T19:44:56;3.63;;;3.33;;
6436;SDS011;3251;53.550;9.918;2023-05-07T19:47:22;4.40;;;2.60;;
6436;SDS011;3251;53.550;9.918;2023-05-07T19:49:48;2.80;;;1.83;;
6436;SDS011;3251;53.550;9.918;2023-05-07T19:52:14;2.73;;;2.53;;
6436;SDS011;3251;53.550;9.918;2023-05-07T19:54:40;3.67;;;3.27;;
6436;SDS011;3251;53.550;9.918;2023-05-07T19:57:07;2.83;;;2.53;;
6436;SDS011;3251;53.550;9.918;2023-05-07T19:59:33;4.20;;;2.90;;
6436;SDS011;3251;53.550;9.918;2023-05-07T20:01:59;13.77;;;4.40;;
6436;SDS011;3251;53.550;9.918;2023-05-07T20:04:25;3.83;;;2.30;;
6436;SDS011;3251;53.550;9.918;2023-05-07T20:06:55;5.13;;;2.23;;
6436;SDS011;3251;53.550;9.918;2023-05-07T20:09:22;2.70;;;2.50;;
6436;SDS011;3251;53.550;9.918;2023-05-07T20:11:48;4.17;;;2.40;;
6436;SDS011;3251;53.550;9.918;2023-05-07T20:14:14;4.47;;;3.03;;
6436;SDS011;3251;53.550;9.918;2023-05-07T20:16:40;20.27;;;10.37;;
6436;SDS011;3251;53.550;9.918;2023-05-07T20:19:06;9.13;;;5.43;;
6436;SDS011;3251;53.550;9.918;2023-05-07T20:21:33;19.03;;;12.20;;
6436;SDS011;3251;53.550;9.918;2023-05-07T20:23:59;5.57;;;4.50;;
6436;SDS011;3251;53.550;9.918;2023-05-07T20:26:25;10.70;;;7.63;;
6436;SDS011;3251;53.550;9.918;2023-05-07T20:28:51;23.20;;;10.77;;
6436;SDS011;3251;53.550;9.918;2023-05-07T20:31:17;15.50;;;8.03;;
6436;SDS011;3251;53.550;9.918;2023-05-07T20:33:44;14.80;;;5.27;;
6436;SDS011;3251;53.550;9.918;2023-05-07T20:36:10;4.50;;;3.70;;
6436;SDS011;3251;53.550;9.918;2023-05-07T20:38:37;6.67;;;5.13;;
6436;SDS011;3251;53.550;9.918;2023-05-07T20:41:09;3.23;;;3.03;;
6436;SDS011;3251;53.550;9.918;2023-05-07T20:43:38;2.63;;;2.43;;
6436;SDS011;3251;53.550;9.918;2023-05-07T20:46:04;4.10;;;3.03;;
6436;SDS011;3251;53.550;9.918;2023-05-07T20:48:31;11.30;;;4.83;;
6436;SDS011;3251;53.550;9.918;2023-05-07T20:50:59;5.77;;;3.87;;
6436;SDS011;3251;53.550;9.918;2023-05-07T20:53:29;3.13;;;2.83;;
6436;SDS011;3251;53.550;9.918;2023-05-07T20:55:55;18.90;;;3.60;;
6436;SDS011;3251;53.550;9.918;2023-05-07T20:58:21;3.73;;;3.40;;
6436;SDS011;3251;53.550;9.918;2023-05-07T21:00:51;3.10;;;2.73;;
6436;SDS011;3251;53.550;9.918;2023-05-07T21:03:17;16.43;;;5.90;;
6436;SDS011;3251;53.550;9.918;2023-05-07T21:05:49;3.60;;;3.30;;
6436;SDS011;3251;53.550;9.918;2023-05-07T21:08:15;4.00;;;3.70;;
6436;SDS011;3251;53.550;9.918;2023-05-07T21:10:41;3.27;;;3.07;;
6436;SDS011;3251;53.550;9.918;2023-05-07T21:13:07;5.60;;;3.90;;
6436;SDS011;3251;53.550;9.918;2023-05-07T21:15:34;3.20;;;2.90;;
